createdAt,value
2016-06-09T00:00:09.077Z,967.82
2016-06-09T00:01:09.079Z,967.85
2016-06-09T00:02:09.083Z,967.82
2016-06-09T00:03:09.649Z,967.79
2016-06-09T00:04:09.089Z,967.79
2016-06-09T00:05:09.076Z,967.78
2016-06-09T00:06:09.079Z,967.74
2016-06-09T00:07:09.098Z,967.76
2016-06-09T00:08:09.085Z,967.76
2016-06-09T00:09:09.089Z,967.74
2016-06-09T00:10:09.091Z,967.76
2016-06-09T00:11:09.095Z,967.76
2016-06-09T00:12:09.097Z,967.74
2016-06-09T00:13:09.100Z,967.75
2016-06-09T00:14:09.103Z,967.74
2016-06-09T00:15:09.091Z,967.73
2016-06-09T00:16:09.094Z,967.77
2016-06-09T00:17:09.097Z,967.73
2016-06-09T00:18:09.101Z,967.71
2016-06-09T00:19:09.103Z,967.72
2016-06-09T00:20:09.107Z,967.72
2016-06-09T00:21:09.110Z,967.75
2016-06-09T00:22:09.128Z,967.75
2016-06-09T00:23:09.116Z,967.73
2016-06-09T00:24:09.120Z,967.71
2016-06-09T00:25:09.106Z,967.71
2016-06-09T00:26:09.109Z,967.7
2016-06-09T00:27:09.113Z,967.69
2016-06-09T00:28:09.116Z,967.68
2016-06-09T00:29:09.119Z,967.66
2016-06-09T00:30:09.121Z,967.68
2016-06-09T00:31:09.125Z,967.66
2016-06-09T00:32:09.128Z,967.64
2016-06-09T00:33:09.131Z,967.65
2016-06-09T00:34:09.119Z,967.65
2016-06-09T00:35:09.137Z,967.63
2016-06-09T00:36:09.126Z,967.63
2016-06-09T00:37:09.128Z,967.62
2016-06-09T00:38:09.131Z,967.63
2016-06-09T00:39:09.135Z,967.59
2016-06-09T00:40:09.137Z,967.56
2016-06-09T00:41:09.140Z,967.58
2016-06-09T00:42:09.144Z,967.58
2016-06-09T00:43:09.147Z,967.53
2016-06-09T00:44:09.149Z,967.52
2016-06-09T00:45:09.153Z,967.54
2016-06-09T00:46:09.139Z,967.54
2016-06-09T00:47:09.143Z,967.51
2016-06-09T00:48:09.146Z,967.56
2016-06-09T00:49:09.149Z,967.52
2016-06-09T00:50:09.152Z,967.55
2016-06-09T00:51:09.155Z,967.56
2016-06-09T00:52:09.159Z,967.53
2016-06-09T00:53:09.161Z,967.51
2016-06-09T00:54:09.165Z,967.55
2016-06-09T00:55:09.152Z,967.53
2016-06-09T00:56:09.154Z,967.53
2016-06-09T00:57:09.173Z,967.54
2016-06-09T00:58:09.161Z,967.53
2016-06-09T00:59:09.164Z,967.52
2016-06-09T01:00:09.167Z,967.45
2016-06-09T01:01:09.170Z,967.44
2016-06-09T01:02:09.173Z,967.48
2016-06-09T01:03:09.176Z,967.46
2016-06-09T01:04:09.179Z,967.46
2016-06-09T01:05:09.182Z,967.48
2016-06-09T01:06:09.171Z,967.45
2016-06-09T01:07:09.173Z,967.41
2016-06-09T01:08:09.176Z,967.43
2016-06-09T01:09:09.179Z,967.4
2016-06-09T01:10:09.183Z,967.38
2016-06-09T01:11:09.186Z,967.39
2016-06-09T01:12:09.189Z,967.4
2016-06-09T01:13:09.332Z,967.41
2016-06-09T01:14:09.195Z,967.4
2016-06-09T01:15:09.182Z,967.43
2016-06-09T01:16:09.201Z,967.45
2016-06-09T01:17:09.188Z,967.4
2016-06-09T01:18:09.191Z,967.39
2016-06-09T01:19:09.195Z,967.38
2016-06-09T01:20:09.197Z,967.4
2016-06-09T01:21:09.200Z,967.39
2016-06-09T01:22:09.204Z,967.39
2016-06-09T01:23:09.207Z,967.37
2016-06-09T01:24:09.209Z,967.36
2016-06-09T01:25:09.197Z,967.35
2016-06-09T01:26:09.216Z,967.37
2016-06-09T01:27:09.203Z,967.37
2016-06-09T01:28:09.205Z,967.37
2016-06-09T01:29:09.209Z,967.34
2016-06-09T01:30:09.213Z,967.33
2016-06-09T01:31:09.215Z,967.32
2016-06-09T01:32:09.218Z,967.31
2016-06-09T01:33:09.221Z,967.31
2016-06-09T01:34:09.225Z,967.3
2016-06-09T01:35:09.227Z,967.32
2016-06-09T01:36:09.215Z,967.29
2016-06-09T01:37:09.219Z,967.27
2016-06-09T01:38:09.221Z,967.26
2016-06-09T01:39:09.225Z,967.27
2016-06-09T01:40:09.228Z,967.23
2016-06-09T01:41:09.231Z,967.23
2016-06-09T01:42:09.234Z,967.23
2016-06-09T01:43:09.237Z,967.2
2016-06-09T01:44:09.240Z,967.2
2016-06-09T01:45:09.243Z,967.21
2016-06-09T01:46:09.231Z,967.2
2016-06-09T01:47:09.249Z,967.2
2016-06-09T01:48:09.237Z,967.18
2016-06-09T01:49:09.600Z,967.17
2016-06-09T01:50:09.243Z,967.19
2016-06-09T01:51:09.246Z,967.19
2016-06-09T01:52:09.249Z,967.21
2016-06-09T01:53:09.252Z,967.18
2016-06-09T01:54:09.255Z,967.15
2016-06-09T01:55:09.242Z,967.17
2016-06-09T01:56:09.246Z,967.18
2016-06-09T01:57:09.249Z,967.19
2016-06-09T01:58:09.252Z,967.16
2016-06-09T01:59:09.255Z,967.18
2016-06-09T02:00:09.259Z,967.17
2016-06-09T02:01:09.261Z,967.16
2016-06-09T02:02:09.264Z,967.17
2016-06-09T02:03:09.268Z,967.16
2016-06-09T02:04:09.255Z,967.21
2016-06-09T02:05:09.258Z,967.18
2016-06-09T02:06:09.261Z,967.14
2016-06-09T02:07:09.264Z,967.14
2016-06-09T02:08:09.267Z,967.18
2016-06-09T02:09:09.270Z,967.14
2016-06-09T02:10:09.273Z,967.16
2016-06-09T02:11:09.276Z,967.15
2016-06-09T02:12:09.279Z,967.14
2016-06-09T02:13:09.282Z,967.09
2016-06-09T02:14:09.270Z,967.12
2016-06-09T02:15:09.272Z,967.11
2016-06-09T02:16:09.292Z,967.11
2016-06-09T02:17:09.279Z,967.1
2016-06-09T02:18:09.282Z,967.12
2016-06-09T02:19:09.862Z,967.07
2016-06-09T02:20:09.288Z,967.08
2016-06-09T02:21:09.291Z,967.06
2016-06-09T02:22:09.293Z,967.1
2016-06-09T02:23:09.297Z,967.08
2016-06-09T02:24:09.285Z,967.08
2016-06-09T02:25:09.288Z,967.06
2016-06-09T02:26:09.291Z,967.06
2016-06-09T02:27:09.294Z,967.05
2016-06-09T02:28:09.297Z,967.03
2016-06-09T02:29:09.301Z,967.01
2016-06-09T02:30:09.304Z,967.02
2016-06-09T02:31:09.307Z,967.02
2016-06-09T02:32:09.310Z,966.98
2016-06-09T02:33:09.297Z,967.01
2016-06-09T02:34:09.300Z,966.99
2016-06-09T02:35:09.319Z,966.97
2016-06-09T02:36:09.322Z,966.97
2016-06-09T02:37:09.309Z,966.94
2016-06-09T02:38:09.312Z,966.97
2016-06-09T02:39:09.316Z,966.95
2016-06-09T02:40:09.318Z,966.94
2016-06-09T02:41:09.321Z,967
2016-06-09T02:42:09.325Z,966.97
2016-06-09T02:43:09.328Z,966.96
2016-06-09T02:44:09.314Z,966.96
2016-06-09T02:45:09.318Z,966.98
2016-06-09T02:46:09.320Z,967.01
2016-06-09T02:47:09.324Z,966.98
2016-06-09T02:48:09.327Z,966.96
2016-06-09T02:49:09.564Z,966.97
2016-06-09T02:50:09.333Z,967
2016-06-09T02:51:09.336Z,966.99
2016-06-09T02:52:09.339Z,966.98
2016-06-09T02:53:09.327Z,967
2016-06-09T02:54:09.330Z,966.99
2016-06-09T02:55:09.333Z,966.95
2016-06-09T02:56:09.337Z,967
2016-06-09T02:57:09.339Z,966.96
2016-06-09T02:58:09.342Z,966.94
2016-06-09T02:59:09.346Z,966.94
2016-06-09T03:00:09.349Z,967
2016-06-09T03:01:09.351Z,967.01
2016-06-09T03:02:09.339Z,967
2016-06-09T03:03:09.342Z,967
2016-06-09T03:04:09.345Z,967.02
2016-06-09T03:05:09.348Z,967.02
2016-06-09T03:06:09.352Z,967
2016-06-09T03:07:09.354Z,966.96
2016-06-09T03:08:09.357Z,966.94
2016-06-09T03:09:09.361Z,966.92
2016-06-09T03:10:09.364Z,966.93
2016-06-09T03:11:09.366Z,966.86
2016-06-09T03:12:09.355Z,966.89
2016-06-09T03:13:09.467Z,966.9
2016-06-09T03:14:09.361Z,966.9
2016-06-09T03:15:09.363Z,966.93
2016-06-09T03:16:09.367Z,966.91
2016-06-09T03:17:09.370Z,966.9
2016-06-09T03:18:09.373Z,966.88
2016-06-09T03:19:09.376Z,966.89
2016-06-09T03:20:09.363Z,966.88
2016-06-09T03:21:09.382Z,966.9
2016-06-09T03:22:09.369Z,966.9
2016-06-09T03:23:09.372Z,966.87
2016-06-09T03:24:09.375Z,966.83
2016-06-09T03:25:09.378Z,966.86
2016-06-09T03:26:09.382Z,966.82
2016-06-09T03:27:09.385Z,966.77
2016-06-09T03:28:09.387Z,966.77
2016-06-09T03:29:09.391Z,966.8
2016-06-09T03:30:09.394Z,966.82
2016-06-09T03:31:09.381Z,966.83
2016-06-09T03:32:09.384Z,966.81
2016-06-09T03:33:09.388Z,966.79
2016-06-09T03:34:09.406Z,966.8
2016-06-09T03:35:09.393Z,966.76
2016-06-09T03:36:09.397Z,966.77
2016-06-09T03:37:09.400Z,966.79
2016-06-09T03:38:09.387Z,966.79
2016-06-09T03:39:09.406Z,966.75
2016-06-09T03:40:09.394Z,966.77
2016-06-09T03:41:09.397Z,966.79
2016-06-09T03:42:09.399Z,966.79
2016-06-09T03:43:09.403Z,966.79
2016-06-09T03:44:09.406Z,966.79
2016-06-09T03:45:09.409Z,966.73
2016-06-09T03:46:09.412Z,966.78
2016-06-09T03:47:09.399Z,966.77
2016-06-09T03:48:09.402Z,966.81
2016-06-09T03:49:09.921Z,966.82
2016-06-09T03:50:09.440Z,966.78
2016-06-09T03:51:09.411Z,966.81
2016-06-09T03:52:09.414Z,966.85
2016-06-09T03:53:09.418Z,966.83
2016-06-09T03:54:09.421Z,966.87
2016-06-09T03:55:09.423Z,966.89
2016-06-09T03:56:09.427Z,966.86
2016-06-09T03:57:09.414Z,966.86
2016-06-09T03:58:09.417Z,966.84
2016-06-09T03:59:09.420Z,966.84
2016-06-09T04:00:09.423Z,966.83
2016-06-09T04:01:09.426Z,966.83
2016-06-09T04:02:09.429Z,966.85
2016-06-09T04:03:09.433Z,966.85
2016-06-09T04:04:09.436Z,966.87
2016-06-09T04:05:09.579Z,966.85
2016-06-09T04:06:09.427Z,966.84
2016-06-09T04:07:09.430Z,966.83
2016-06-09T04:08:09.433Z,966.85
2016-06-09T04:09:09.435Z,966.86
2016-06-09T04:10:09.439Z,966.84
2016-06-09T04:11:09.442Z,966.86
2016-06-09T04:12:09.445Z,966.84
2016-06-09T04:13:09.448Z,966.85
2016-06-09T04:14:09.451Z,966.84
2016-06-09T04:15:09.469Z,966.85
2016-06-09T04:16:09.442Z,966.84
2016-06-09T04:17:09.445Z,966.85
2016-06-09T04:18:09.447Z,966.83
2016-06-09T04:19:09.544Z,966.85
2016-06-09T04:20:09.454Z,966.86
2016-06-09T04:21:09.457Z,966.85
2016-06-09T04:22:09.459Z,966.87
2016-06-09T04:23:09.463Z,966.88
2016-06-09T04:24:09.451Z,966.9
2016-06-09T04:25:09.454Z,966.88
2016-06-09T04:26:09.457Z,966.87
2016-06-09T04:27:09.460Z,966.89
2016-06-09T04:28:09.463Z,966.9
2016-06-09T04:29:09.466Z,966.89
2016-06-09T04:30:09.470Z,966.87
2016-06-09T04:31:09.473Z,966.89
2016-06-09T04:32:09.476Z,966.87
2016-06-09T04:33:09.478Z,966.88
2016-06-09T04:34:09.482Z,966.88
2016-06-09T04:35:09.485Z,966.88
2016-06-09T04:36:09.471Z,966.89
2016-06-09T04:37:09.475Z,966.9
2016-06-09T04:38:09.478Z,966.93
2016-06-09T04:39:09.481Z,966.91
2016-06-09T04:40:09.484Z,966.92
2016-06-09T04:41:09.487Z,966.88
2016-06-09T04:42:09.490Z,966.89
2016-06-09T04:43:09.477Z,966.89
2016-06-09T04:44:09.481Z,966.92
2016-06-09T04:45:09.483Z,966.89
2016-06-09T04:46:09.486Z,966.91
2016-06-09T04:47:09.490Z,966.9
2016-06-09T04:48:09.493Z,966.9
2016-06-09T04:49:09.527Z,966.86
2016-06-09T04:50:09.515Z,966.86
2016-06-09T04:51:09.502Z,966.87
2016-06-09T04:52:09.490Z,966.88
2016-06-09T04:53:09.493Z,966.9
2016-06-09T04:54:09.496Z,966.85
2016-06-09T04:55:09.499Z,966.85
2016-06-09T04:56:09.502Z,966.87
2016-06-09T04:57:09.505Z,966.85
2016-06-09T04:58:09.509Z,966.93
2016-06-09T04:59:09.512Z,966.94
2016-06-09T05:00:09.498Z,966.93
2016-06-09T05:01:09.502Z,966.92
2016-06-09T05:02:09.505Z,966.97
2016-06-09T05:03:09.508Z,966.99
2016-06-09T05:04:10.105Z,966.94
2016-06-09T05:05:09.513Z,966.99
2016-06-09T05:06:09.517Z,966.97
2016-06-09T05:07:09.520Z,967
2016-06-09T05:08:09.523Z,966.99
2016-06-09T05:09:09.527Z,966.98
2016-06-09T05:10:09.513Z,966.94
2016-06-09T05:11:09.532Z,966.92
2016-06-09T05:12:09.520Z,966.93
2016-06-09T05:13:09.523Z,966.97
2016-06-09T05:14:09.525Z,966.96
2016-06-09T05:15:09.529Z,966.98
2016-06-09T05:16:09.532Z,966.99
2016-06-09T05:17:09.535Z,966.97
2016-06-09T05:18:09.538Z,966.98
2016-06-09T05:19:09.526Z,966.97
2016-06-09T05:20:09.529Z,966.98
2016-06-09T05:21:09.532Z,966.99
2016-06-09T05:22:09.535Z,966.99
2016-06-09T05:23:09.538Z,966.95
2016-06-09T05:24:09.541Z,966.93
2016-06-09T05:25:09.544Z,966.94
2016-06-09T05:26:09.548Z,967
2016-06-09T05:27:09.535Z,966.92
2016-06-09T05:28:09.554Z,967
2016-06-09T05:29:09.540Z,966.96
2016-06-09T05:30:09.544Z,966.99
2016-06-09T05:31:09.547Z,966.96
2016-06-09T05:32:09.550Z,966.93
2016-06-09T05:33:09.553Z,966.97
2016-06-09T05:34:09.556Z,966.97
2016-06-09T05:35:09.559Z,966.97
2016-06-09T05:36:09.563Z,967.01
2016-06-09T05:37:09.565Z,966.97
2016-06-09T05:38:09.568Z,966.99
2016-06-09T05:39:09.556Z,967.03
2016-06-09T05:40:09.575Z,966.99
2016-06-09T05:41:09.563Z,967.03
2016-06-09T05:42:09.566Z,967.02
2016-06-09T05:43:09.569Z,967
2016-06-09T05:44:09.571Z,967
2016-06-09T05:45:09.575Z,966.99
2016-06-09T05:46:09.577Z,967
2016-06-09T05:47:09.581Z,967
2016-06-09T05:48:09.568Z,967.02
2016-06-09T05:49:09.571Z,967.04
2016-06-09T05:50:09.590Z,967.02
2016-06-09T05:51:09.577Z,966.99
2016-06-09T05:52:09.580Z,967
2016-06-09T05:53:09.583Z,967.03
2016-06-09T05:54:09.586Z,967.09
2016-06-09T05:55:09.590Z,967.09
2016-06-09T05:56:09.593Z,967.1
2016-06-09T05:57:09.595Z,967.1
2016-06-09T05:58:09.583Z,967.09
2016-06-09T05:59:09.586Z,967.1
2016-06-09T06:00:09.589Z,967.09
2016-06-09T06:01:09.592Z,967.09
2016-06-09T06:02:09.596Z,967.1
2016-06-09T06:03:09.598Z,967.08
2016-06-09T06:04:09.602Z,967.08
2016-06-09T06:05:09.604Z,967.1
2016-06-09T06:06:09.607Z,967.06
2016-06-09T06:07:09.610Z,967.09
2016-06-09T06:08:09.598Z,967.06
2016-06-09T06:09:09.601Z,967.07
2016-06-09T06:10:09.605Z,967.02
2016-06-09T06:11:09.608Z,967.06
2016-06-09T06:12:09.611Z,967.07
2016-06-09T06:13:09.770Z,967.05
2016-06-09T06:14:09.617Z,967.06
2016-06-09T06:15:09.620Z,967.07
2016-06-09T06:16:09.623Z,967.07
2016-06-09T06:17:09.626Z,967.11
2016-06-09T06:18:09.613Z,967.09
2016-06-09T06:19:09.633Z,967.08
2016-06-09T06:20:09.620Z,967.02
2016-06-09T06:21:09.623Z,967.01
2016-06-09T06:22:09.626Z,967.04
2016-06-09T06:23:09.629Z,967.06
2016-06-09T06:24:09.632Z,967.03
2016-06-09T06:25:09.635Z,967.06
2016-06-09T06:26:09.638Z,967.06
2016-06-09T06:27:09.641Z,967.08
2016-06-09T06:28:09.644Z,967.08
2016-06-09T06:29:09.631Z,967.09
2016-06-09T06:30:09.635Z,967.11
2016-06-09T06:31:09.637Z,967.1
2016-06-09T06:32:09.640Z,967.12
2016-06-09T06:33:09.643Z,967.13
2016-06-09T06:34:09.647Z,967.12
2016-06-09T06:35:10.196Z,967.16
2016-06-09T06:36:09.653Z,967.16
2016-06-09T06:37:09.656Z,967.13
2016-06-09T06:38:09.659Z,967.11
2016-06-09T06:39:09.662Z,967.1
2016-06-09T06:40:09.650Z,967.15
2016-06-09T06:41:09.653Z,967.11
2016-06-09T06:42:09.656Z,967.11
2016-06-09T06:43:09.659Z,967.12
2016-06-09T06:44:09.663Z,967.12
2016-06-09T06:45:09.665Z,967.11
2016-06-09T06:46:09.668Z,967.11
2016-06-09T06:47:09.671Z,967.15
2016-06-09T06:48:09.675Z,967.14
2016-06-09T06:49:09.662Z,967.11
2016-06-09T06:50:09.681Z,967.13
2016-06-09T06:51:09.668Z,967.15
2016-06-09T06:52:09.670Z,967.16
2016-06-09T06:53:09.674Z,967.19
2016-06-09T06:54:09.677Z,967.15
2016-06-09T06:55:09.680Z,967.18
2016-06-09T06:56:09.683Z,967.16
2016-06-09T06:57:09.686Z,967.17
2016-06-09T06:58:09.689Z,967.17
2016-06-09T06:59:09.693Z,967.12
2016-06-09T07:00:09.696Z,967.17
2016-06-09T07:01:09.698Z,967.12
2016-06-09T07:02:09.686Z,967.12
2016-06-09T07:03:09.705Z,967.14
2016-06-09T07:04:09.693Z,967.14
2016-06-09T07:05:09.695Z,967.13
2016-06-09T07:06:09.699Z,967.11
2016-06-09T07:07:09.702Z,967.16
2016-06-09T07:08:09.705Z,967.16
2016-06-09T07:09:09.708Z,967.12
2016-06-09T07:10:09.711Z,967.09
2016-06-09T07:11:09.715Z,967.11
2016-06-09T07:12:09.717Z,967.14
2016-06-09T07:13:09.720Z,967.13
2016-06-09T07:14:09.723Z,967.16
2016-06-09T07:15:09.727Z,967.18
2016-06-09T07:16:09.729Z,967.18
2016-06-09T07:17:09.733Z,967.21
2016-06-09T07:18:09.735Z,967.19
2016-06-09T07:19:09.739Z,967.17
2016-06-09T07:20:10.038Z,967.18
2016-06-09T07:21:09.729Z,967.19
2016-06-09T07:22:09.732Z,967.18
2016-06-09T07:23:09.735Z,967.19
2016-06-09T07:24:09.738Z,967.16
2016-06-09T07:25:09.757Z,967.17
2016-06-09T07:26:09.761Z,967.13
2016-06-09T07:27:09.748Z,967.15
2016-06-09T07:28:09.751Z,967.15
2016-06-09T07:29:09.753Z,967.14
2016-06-09T07:30:09.757Z,967.14
2016-06-09T07:31:09.760Z,967.11
2016-06-09T07:32:09.763Z,967.12
2016-06-09T07:33:09.766Z,967.13
2016-06-09T07:34:09.768Z,967.14
2016-06-09T07:35:09.772Z,967.15
2016-06-09T07:36:09.775Z,967.13
2016-06-09T07:37:09.778Z,967.12
2016-06-09T07:38:09.781Z,967.19
2016-06-09T07:39:09.784Z,967.17
2016-06-09T07:40:09.787Z,967.17
2016-06-09T07:41:09.790Z,967.17
2016-06-09T07:42:09.793Z,967.2
2016-06-09T07:43:09.797Z,967.2
2016-06-09T07:44:09.799Z,967.21
2016-06-09T07:45:09.803Z,967.18
2016-06-09T07:46:09.806Z,967.16
2016-06-09T07:47:09.809Z,967.17
2016-06-09T07:48:09.812Z,967.19
2016-06-09T07:49:09.815Z,967.2
2016-06-09T07:50:09.927Z,967.16
2016-06-09T07:51:09.821Z,967.15
2016-06-09T07:52:09.825Z,967.15
2016-06-09T07:53:09.827Z,967.18
2016-06-09T07:54:09.830Z,967.16
2016-06-09T07:55:09.833Z,967.16
2016-06-09T07:56:09.837Z,967.19
2016-06-09T07:57:09.840Z,967.15
2016-06-09T07:58:09.843Z,967.16
2016-06-09T07:59:09.845Z,967.14
2016-06-09T08:00:09.849Z,967.11
2016-06-09T08:01:09.852Z,967.14
2016-06-09T08:02:09.855Z,967.13
2016-06-09T08:03:09.858Z,967.17
2016-06-09T08:04:09.861Z,967.15
2016-06-09T08:05:10.567Z,967.16
2016-06-09T08:06:09.868Z,967.17
2016-06-09T08:07:09.870Z,967.13
2016-06-09T08:08:09.874Z,967.14
2016-06-09T08:09:09.877Z,967.14
2016-06-09T08:10:09.879Z,967.12
2016-06-09T08:11:09.883Z,967.13
2016-06-09T08:12:09.886Z,967.11
2016-06-09T08:13:09.888Z,967.11
2016-06-09T08:14:09.892Z,967.1
2016-06-09T08:15:09.894Z,967.14
2016-06-09T08:16:09.898Z,967.08
2016-06-09T08:17:09.901Z,967.11
2016-06-09T08:18:09.904Z,967.09
2016-06-09T08:19:09.907Z,967.08
2016-06-09T08:20:09.911Z,967.1
2016-06-09T08:21:09.913Z,967.09
2016-06-09T08:22:09.917Z,967.12
2016-06-09T08:23:09.919Z,967.12
2016-06-09T08:24:09.923Z,967.16
2016-06-09T08:25:09.928Z,967.17
2016-06-09T08:26:09.973Z,967.18
2016-06-09T08:27:10.019Z,967.2
2016-06-09T08:28:10.064Z,967.17
2016-06-09T08:29:10.111Z,967.17
2016-06-09T08:30:10.155Z,967.18
2016-06-09T08:31:10.173Z,967.16
2016-06-09T08:32:10.192Z,967.16
2016-06-09T08:33:10.210Z,967.19
2016-06-09T08:34:10.228Z,967.16
2016-06-09T08:35:10.402Z,967.18
2016-06-09T08:36:10.255Z,967.16
2016-06-09T08:37:10.264Z,967.21
2016-06-09T08:38:10.272Z,967.2
2016-06-09T08:39:10.280Z,967.19
2016-06-09T08:40:10.288Z,967.14
2016-06-09T08:41:10.293Z,967.15
2016-06-09T08:42:10.299Z,967.16
2016-06-09T08:43:10.304Z,967.14
2016-06-09T08:44:10.309Z,967.12
2016-06-09T08:45:10.313Z,967.13
2016-06-09T08:46:10.317Z,967.12
2016-06-09T08:47:10.321Z,967.14
2016-06-09T08:48:10.325Z,967.07
2016-06-09T08:49:10.329Z,967.07
2016-06-09T08:50:10.333Z,967.13
2016-06-09T08:51:10.336Z,967.1
2016-06-09T08:52:10.339Z,967.12
2016-06-09T08:53:10.343Z,967.14
2016-06-09T08:54:10.347Z,967.14
2016-06-09T08:55:10.350Z,967.16
2016-06-09T08:56:10.354Z,967.2
2016-06-09T08:57:10.356Z,967.16
2016-06-09T08:58:10.360Z,967.18
2016-06-09T08:59:10.363Z,967.19
2016-06-09T09:00:10.365Z,967.19
2016-06-09T09:01:10.368Z,967.19
2016-06-09T09:02:10.371Z,967.18
2016-06-09T09:03:10.390Z,967.18
2016-06-09T09:04:10.377Z,967.18
2016-06-09T09:05:10.381Z,967.2
2016-06-09T09:06:10.634Z,967.16
2016-06-09T09:07:10.387Z,967.18
2016-06-09T09:08:10.406Z,967.15
2016-06-09T09:09:10.393Z,967.15
2016-06-09T09:10:10.412Z,967.18
2016-06-09T09:11:10.400Z,967.17
2016-06-09T09:12:10.418Z,967.2
2016-06-09T09:13:10.422Z,967.22
2016-06-09T09:14:10.409Z,967.2
2016-06-09T09:15:10.428Z,967.23
2016-06-09T09:16:10.430Z,967.2
2016-06-09T09:17:10.418Z,967.2
2016-06-09T09:18:10.437Z,967.15
2016-06-09T09:19:10.440Z,967.17
2016-06-09T09:20:10.443Z,967.13
2016-06-09T09:21:10.446Z,967.17
2016-06-09T09:22:10.449Z,967.18
2016-06-09T09:23:10.452Z,967.2
2016-06-09T09:24:10.455Z,967.21
2016-06-09T09:25:10.458Z,967.25
2016-06-09T09:26:10.461Z,967.23
2016-06-09T09:27:10.464Z,967.26
2016-06-09T09:28:10.468Z,967.25
2016-06-09T09:29:10.470Z,967.23
2016-06-09T09:30:10.473Z,967.24
2016-06-09T09:31:10.477Z,967.25
2016-06-09T09:32:10.479Z,967.25
2016-06-09T09:33:10.482Z,967.3
2016-06-09T09:34:10.486Z,967.3
2016-06-09T09:35:10.957Z,967.32
2016-06-09T09:36:10.492Z,967.27
2016-06-09T09:37:10.495Z,967.32
2016-06-09T09:38:10.499Z,967.34
2016-06-09T09:39:10.501Z,967.33
2016-06-09T09:40:10.504Z,967.32
2016-06-09T09:41:10.507Z,967.34
2016-06-09T09:42:10.511Z,967.37
2016-06-09T09:43:10.513Z,967.35
2016-06-09T09:44:10.517Z,967.38
2016-06-09T09:45:10.520Z,967.37
2016-06-09T09:46:10.523Z,967.37
2016-06-09T09:47:10.526Z,967.36
2016-06-09T09:48:10.528Z,967.36
2016-06-09T09:49:10.532Z,967.32
2016-06-09T09:50:10.956Z,967.34
2016-06-09T09:51:11.367Z,967.32
2016-06-09T09:52:10.542Z,967.36
2016-06-09T09:53:10.544Z,967.39
2016-06-09T09:54:10.547Z,967.37
2016-06-09T09:55:10.566Z,967.33
2016-06-09T09:56:10.554Z,967.35
2016-06-09T09:57:10.556Z,967.34
2016-06-09T09:58:10.560Z,967.34
2016-06-09T09:59:10.562Z,967.29
2016-06-09T10:00:10.581Z,967.32
2016-06-09T10:01:10.569Z,967.31
2016-06-09T10:02:10.587Z,967.31
2016-06-09T10:03:10.590Z,967.28
2016-06-09T10:04:10.593Z,967.3
2016-06-09T10:05:10.596Z,967.31
2016-06-09T10:06:10.599Z,967.31
2016-06-09T10:07:10.602Z,967.32
2016-06-09T10:08:10.605Z,967.32
2016-06-09T10:09:10.609Z,967.3
2016-06-09T10:10:10.611Z,967.33
2016-06-09T10:11:10.615Z,967.34
2016-06-09T10:12:10.618Z,967.29
2016-06-09T10:13:10.621Z,967.32
2016-06-09T10:14:10.624Z,967.3
2016-06-09T10:15:10.627Z,967.38
2016-06-09T10:16:10.630Z,967.34
2016-06-09T10:17:10.649Z,967.35
2016-06-09T10:18:10.636Z,967.34
2016-06-09T10:19:10.639Z,967.35
2016-06-09T10:20:10.642Z,967.33
2016-06-09T10:21:11.224Z,967.38
2016-06-09T10:22:10.664Z,967.32
2016-06-09T10:23:10.668Z,967.35
2016-06-09T10:24:10.671Z,967.32
2016-06-09T10:25:10.673Z,967.31
2016-06-09T10:26:10.676Z,967.33
2016-06-09T10:27:10.680Z,967.39
2016-06-09T10:28:10.683Z,967.39
2016-06-09T10:29:10.686Z,967.36
2016-06-09T10:30:10.689Z,967.37
2016-06-09T10:31:10.693Z,967.38
2016-06-09T10:32:10.695Z,967.4
2016-06-09T10:33:10.698Z,967.42
2016-06-09T10:34:10.701Z,967.38
2016-06-09T10:35:10.704Z,967.44
2016-06-09T10:36:10.708Z,967.47
2016-06-09T10:37:10.725Z,967.45
2016-06-09T10:38:10.713Z,967.41
2016-06-09T10:39:10.747Z,967.44
2016-06-09T10:40:10.735Z,967.48
2016-06-09T10:41:10.738Z,967.45
2016-06-09T10:42:10.741Z,967.47
2016-06-09T10:43:10.744Z,967.45
2016-06-09T10:44:10.747Z,967.44
2016-06-09T10:45:10.750Z,967.42
2016-06-09T10:46:10.770Z,967.42
2016-06-09T10:47:10.756Z,967.45
2016-06-09T10:48:10.759Z,967.45
2016-06-09T10:49:10.763Z,967.46
2016-06-09T10:50:10.765Z,967.48
2016-06-09T10:51:10.769Z,967.47
2016-06-09T10:52:10.772Z,967.42
2016-06-09T10:53:10.775Z,967.45
2016-06-09T10:54:10.794Z,967.46
2016-06-09T10:55:10.796Z,967.5
2016-06-09T10:56:10.800Z,967.47
2016-06-09T10:57:10.803Z,967.46
2016-06-09T10:58:10.806Z,967.47
2016-06-09T10:59:10.809Z,967.48
2016-06-09T11:00:10.813Z,967.47
2016-06-09T11:01:22.003Z,967.48
2016-06-09T11:02:10.819Z,967.47
2016-06-09T11:03:10.821Z,967.48
2016-06-09T11:04:10.825Z,967.5
2016-06-09T11:05:10.828Z,967.5
2016-06-09T11:06:10.830Z,967.51
2016-06-09T11:07:11.225Z,967.51
2016-06-09T11:08:10.853Z,967.52
2016-06-09T11:09:10.856Z,967.54
2016-06-09T11:10:10.859Z,967.52
2016-06-09T11:11:10.862Z,967.51
2016-06-09T11:12:10.865Z,967.51
2016-06-09T11:13:11.024Z,967.54
2016-06-09T11:14:10.871Z,967.5
2016-06-09T11:15:10.874Z,967.5
2016-06-09T11:16:10.877Z,967.5
2016-06-09T11:17:10.895Z,967.51
2016-06-09T11:18:10.883Z,967.51
2016-06-09T11:19:10.887Z,967.51
2016-06-09T11:20:10.904Z,967.5
2016-06-09T11:21:10.893Z,967.51
2016-06-09T11:22:10.911Z,967.5
2016-06-09T11:23:10.914Z,967.55
2016-06-09T11:24:11.824Z,967.52
2016-06-09T11:25:10.920Z,967.52
2016-06-09T11:26:10.923Z,967.55
2016-06-09T11:27:10.926Z,967.53
2016-06-09T11:28:10.930Z,967.58
2016-06-09T11:29:10.932Z,967.55
2016-06-09T11:30:10.936Z,967.59
2016-06-09T11:31:10.938Z,967.57
2016-06-09T11:32:10.941Z,967.55
2016-06-09T11:33:10.945Z,967.53
2016-06-09T11:34:10.948Z,967.55
2016-06-09T11:35:10.966Z,967.57
2016-06-09T11:36:11.126Z,967.56
2016-06-09T11:37:10.973Z,967.57
2016-06-09T11:38:10.960Z,967.59
2016-06-09T11:39:10.979Z,967.6
2016-06-09T11:40:10.982Z,967.58
2016-06-09T11:41:10.986Z,967.57
2016-06-09T11:42:10.988Z,967.54
2016-06-09T11:43:10.992Z,967.56
2016-06-09T11:44:10.995Z,967.58
2016-06-09T11:45:10.998Z,967.6
2016-06-09T11:46:11.001Z,967.56
2016-06-09T11:47:11.004Z,967.59
2016-06-09T11:48:11.007Z,967.58
2016-06-09T11:49:11.009Z,967.59
2016-06-09T11:50:11.013Z,967.63
2016-06-09T11:51:11.016Z,967.56
2016-06-09T11:52:11.019Z,967.58
2016-06-09T11:53:11.038Z,967.58
2016-06-09T11:54:11.026Z,967.59
2016-06-09T11:55:11.028Z,967.55
2016-06-09T11:56:11.032Z,967.56
2016-06-09T11:57:11.050Z,967.56
2016-06-09T11:58:11.054Z,967.57
2016-06-09T11:59:11.057Z,967.55
2016-06-09T12:00:11.059Z,967.58
2016-06-09T12:01:11.063Z,967.57
2016-06-09T12:02:11.066Z,967.56
2016-06-09T12:03:11.069Z,967.55
2016-06-09T12:04:11.072Z,967.54
2016-06-09T12:05:11.075Z,967.56
2016-06-09T12:06:11.078Z,967.57
2016-06-09T12:07:11.081Z,967.58
2016-06-09T12:08:11.084Z,967.6
2016-06-09T12:09:11.087Z,967.58
2016-06-09T12:10:11.090Z,967.58
2016-06-09T12:11:11.109Z,967.57
2016-06-09T12:12:11.096Z,967.57
2016-06-09T12:13:11.099Z,967.6
2016-06-09T12:14:11.117Z,967.57
2016-06-09T12:15:11.121Z,967.6
2016-06-09T12:16:11.124Z,967.56
2016-06-09T12:17:11.127Z,967.58
2016-06-09T12:18:11.130Z,967.58
2016-06-09T12:19:11.133Z,967.57
2016-06-09T12:20:11.136Z,967.59
2016-06-09T12:21:11.139Z,967.62
2016-06-09T12:22:11.642Z,967.6
2016-06-09T12:23:11.145Z,967.61
2016-06-09T12:24:11.149Z,967.6
2016-06-09T12:25:11.151Z,967.61
2016-06-09T12:26:11.155Z,967.64
2016-06-09T12:27:11.158Z,967.61
2016-06-09T12:28:11.160Z,967.62
2016-06-09T12:29:11.164Z,967.66
2016-06-09T12:30:11.167Z,967.64
2016-06-09T12:31:11.170Z,967.66
2016-06-09T12:32:11.173Z,967.64